Time;durP1;ratioP1;P1;durP2;ratioP2;P2;SDS_P1;SDS_P2;PMS_P1;PMS_P2;Temp;Humidity;BMP_temperature;BMP_pressure;BME280_temperature;BME280_humidity;BME280_pressure;Samples;Min_cycle;Max_cycle;Signal;HPM_P1;HPM_P2
2023/07/09 00:01:03;;;;;;;8.73;6.22;;;;;;;20.34;100.00;100956.84;6149949;28;20046;-93
2023/07/09 00:04:05;;;;;;;9.32;5.70;;;;;;;20.29;100.00;100961.00;6136426;28;20409;-93
2023/07/09 00:07:30;;;;;;;7.78;6.05;;;;;;;20.23;100.00;100958.09;6138950;28;20222;-92
2023/07/09 00:10:34;;;;;;;7.88;6.00;;;;;;;20.18;100.00;100960.41;6137273;28;20043;-93
2023/07/09 00:13:36;;;;;;;10.45;6.40;;;;;;;20.78;100.00;100965.94;6140373;28;20047;-92
2023/07/09 00:16:39;;;;;;;9.20;6.47;;;;;;;20.73;100.00;100969.09;6148250;28;20043;-93
2023/07/09 00:19:44;;;;;;;8.27;6.57;;;;;;;20.76;100.00;100979.28;6139579;28;20050;-92
2023/07/09 00:22:51;;;;;;;9.25;6.22;;;;;;;20.62;100.00;100972.97;6122197;28;20055;-93
2023/07/09 00:25:53;;;;;;;9.57;6.25;;;;;;;20.64;100.00;100973.63;6129398;28;20090;-93
2023/07/09 00:28:55;;;;;;;7.05;5.75;;;;;;;20.68;100.00;100974.09;6116523;29;20383;-93
2023/07/09 00:31:57;;;;;;;9.18;6.78;;;;;;;20.81;100.00;100981.38;6141187;28;20043;-92
2023/07/09 00:35:00;;;;;;;8.27;6.47;;;;;;;20.83;100.00;100985.47;6136449;28;20844;-93
2023/07/09 00:38:02;;;;;;;9.50;6.55;;;;;;;20.80;100.00;100979.75;6150132;28;20044;-93
2023/07/09 00:41:18;;;;;;;8.20;6.40;;;;;;;20.70;100.00;100974.72;6136570;28;20036;-93
2023/07/09 00:44:20;;;;;;;7.10;6.10;;;;;;;20.62;100.00;100972.13;6143300;28;20043;-92
2023/07/09 00:47:49;;;;;;;8.90;6.18;;;;;;;20.59;100.00;100967.25;6145505;28;20165;-92
2023/07/09 00:50:53;;;;;;;7.45;5.93;;;;;;;20.36;100.00;100968.03;6138727;28;20055;-92
2023/07/09 00:54:00;;;;;;;9.68;6.63;;;;;;;20.15;100.00;100965.22;6142659;28;20042;-92
2023/07/09 00:57:07;;;;;;;10.43;6.18;;;;;;;20.31;100.00;100970.38;6133858;28;20046;-92
2023/07/09 01:00:14;;;;;;;6.35;5.68;;;;;;;20.30;100.00;100975.81;6124572;28;20577;-92
2023/07/09 01:03:42;;;;;;;10.82;6.70;;;;;;;20.23;100.00;100967.78;6137278;28;20043;-92
2023/07/09 01:06:49;;;;;;;8.85;6.55;;;;;;;20.16;100.00;100953.69;6140293;28;20109;-92
2023/07/09 01:09:51;;;;;;;7.38;6.07;;;;;;;20.14;100.00;100963.56;6143297;28;20410;-92
2023/07/09 01:12:53;;;;;;;7.43;6.07;;;;;;;20.12;100.00;100957.66;6137027;28;20089;-92
2023/07/09 01:15:55;;;;;;;11.02;7.07;;;;;;;20.10;100.00;100957.84;6140973;28;20062;-92
2023/07/09 01:18:58;;;;;;;8.57;6.65;;;;;;;20.06;100.00;100955.72;6146192;28;20041;-93
2023/07/09 01:22:01;;;;;;;8.35;6.57;;;;;;;20.03;100.00;100961.34;6137292;28;20074;-93
2023/07/09 01:25:06;;;;;;;8.48;6.32;;;;;;;20.01;100.00;100961.50;6142648;28;20034;-93
2023/07/09 01:28:08;;;;;;;10.68;6.45;;;;;;;19.99;100.00;100961.66;6136952;28;20062;-92
2023/07/09 01:31:13;;;;;;;9.10;6.78;;;;;;;19.96;100.00;100961.19;6139230;28;20493;-92
2023/07/09 01:34:15;;;;;;;7.38;6.65;;;;;;;19.91;100.00;100964.34;6138852;28;20059;-92
2023/07/09 01:37:21;;;;;;;8.60;6.10;;;;;;;19.89;100.00;100962.88;6138543;28;20043;-93
2023/07/09 01:40:27;;;;;;;8.45;6.63;;;;;;;19.90;100.00;100960.09;6138502;28;20059;-93
2023/07/09 01:43:35;;;;;;;8.27;6.30;;;;;;;19.85;100.00;100965.03;6148887;28;20050;-93
2023/07/09 01:46:36;;;;;;;6.68;5.72;;;;;;;19.83;100.00;100958.31;6152065;28;20051;-92
2023/07/09 01:49:39;;;;;;;7.90;5.78;;;;;;;19.77;100.00;100951.91;6144477;28;20186;-93
2023/07/09 01:52:43;;;;;;;10.60;6.72;;;;;;;19.74;100.00;100962.78;6120845;29;20202;-93
2023/07/09 01:55:45;;;;;;;7.72;6.10;;;;;;;19.66;100.00;100957.53;6137566;28;20564;-93
2023/07/09 01:58:48;;;;;;;11.73;7.18;;;;;;;19.56;100.00;100962.97;6153762;28;20185;-93
2023/07/09 02:01:53;;;;;;;11.35;6.82;;;;;;;19.47;100.00;100956.91;6155405;28;20506;-92
2023/07/09 02:04:56;;;;;;;8.00;6.65;;;;;;;19.39;100.00;100956.94;6132177;28;20051;-93
2023/07/09 02:07:59;;;;;;;9.15;6.43;;;;;;;19.34;100.00;100957.44;6137395;28;20051;-92
2023/07/09 02:11:02;;;;;;;10.38;6.78;;;;;;;19.28;100.00;100952.88;6135830;28;20409;-93
2023/07/09 02:14:04;;;;;;;8.25;6.63;;;;;;;19.23;100.00;100955.19;6137022;28;20036;-93
2023/07/09 02:17:06;;;;;;;7.60;6.57;;;;;;;19.15;100.00;100952.56;6141414;28;20318;-93
2023/07/09 02:20:09;;;;;;;7.07;5.88;;;;;;;19.14;100.00;100953.56;6150625;28;20035;-92
2023/07/09 02:23:11;;;;;;;9.35;7.07;;;;;;;19.11;100.00;100946.03;6137468;28;20072;-92
2023/07/09 02:26:13;;;;;;;8.90;6.32;;;;;;;19.13;100.00;100951.94;6136395;28;20508;-93
2023/07/09 02:29:15;;;;;;;10.13;7.15;;;;;;;19.12;100.00;100952.91;6137302;28;20405;-92
2023/07/09 02:32:25;;;;;;;9.32;6.85;;;;;;;19.10;100.00;100958.31;6143635;28;20042;-93
2023/07/09 02:35:27;;;;;;;7.97;6.60;;;;;;;19.01;100.00;100956.69;6137898;28;20046;-92
2023/07/09 02:38:29;;;;;;;7.35;6.63;;;;;;;18.38;100.00;100946.81;6137840;28;20531;-92
2023/07/09 02:41:31;;;;;;;10.05;6.82;;;;;;;18.33;100.00;100954.34;6137428;28;20046;-93
2023/07/09 02:44:32;;;;;;;9.45;6.93;;;;;;;18.33;100.00;100954.34;6136674;28;20933;-92
2023/07/09 02:47:35;;;;;;;9.98;6.93;;;;;;;18.32;100.00;100950.09;6136679;28;20121;-93
2023/07/09 02:50:37;;;;;;;8.02;6.55;;;;;;;18.33;100.00;100949.91;6138976;28;20194;-93
2023/07/09 02:53:39;;;;;;;7.65;6.80;;;;;;;18.29;100.00;100952.06;6139233;28;20446;-92
2023/07/09 02:56:41;;;;;;;9.95;7.22;;;;;;;18.30;100.00;100948.44;6131223;28;20465;-92
2023/07/09 02:59:42;;;;;;;10.25;6.47;;;;;;;18.25;100.00;100949.91;6132211;28;20497;-93
2023/07/09 03:02:44;;;;;;;8.88;6.75;;;;;;;18.21;100.00;100949.44;6140629;28;20627;-92
2023/07/09 03:05:47;;;;;;;9.90;6.78;;;;;;;18.22;100.00;100953.69;6143753;28;20046;-93
2023/07/09 03:08:49;;;;;;;10.70;6.57;;;;;;;18.19;100.00;100956.63;6146307;28;20449;-93
2023/07/09 03:11:51;;;;;;;9.45;7.00;;;;;;;18.20;100.00;100955.63;6129315;28;20135;-93
2023/07/09 03:14:53;;;;;;;11.27;7.13;;;;;;;18.13;100.00;100951.19;6135278;28;20379;-93
2023/07/09 03:17:55;;;;;;;9.27;6.95;;;;;;;18.09;100.00;100963.81;6144778;28;20059;-92
2023/07/09 03:20:58;;;;;;;7.00;6.30;;;;;;;18.11;100.00;100966.25;6139987;28;20067;-93
2023/07/09 03:24:00;;;;;;;8.60;6.63;;;;;;;18.11;100.00;100968.88;6140795;28;20046;-92
2023/07/09 03:27:02;;;;;;;10.60;6.68;;;;;;;18.11;100.00;100967.09;6152300;28;20049;-93
2023/07/09 03:30:04;;;;;;;8.35;7.13;;;;;;;18.10;100.00;100969.84;6150432;28;20126;-93
2023/07/09 03:33:06;;;;;;;7.85;6.20;;;;;;;18.18;100.00;100973.31;6146536;28;20451;-93
2023/07/09 03:36:07;;;;;;;8.63;6.18;;;;;;;18.18;100.00;100972.50;6149833;28;20040;-93
2023/07/09 03:39:09;;;;;;;12.60;7.05;;;;;;;18.17;100.00;100973.50;6149023;28;20091;-93
2023/07/09 03:42:11;;;;;;;10.15;7.25;;;;;;;18.17;100.00;100969.06;6140756;28;20460;-93
2023/07/09 03:45:13;;;;;;;7.85;6.60;;;;;;;18.21;100.00;100967.78;6131039;28;20043;-93
2023/07/09 03:48:17;;;;;;;7.95;6.57;;;;;;;18.27;100.00;100964.50;6148313;28;20062;-92
2023/07/09 03:51:19;;;;;;;8.55;6.47;;;;;;;18.30;100.00;100974.66;6150867;28;20054;-93
2023/07/09 03:54:21;;;;;;;7.90;6.45;;;;;;;18.36;100.00;100967.97;6140403;28;20501;-92
2023/07/09 03:57:23;;;;;;;8.23;7.28;;;;;;;18.40;100.00;100974.50;6124845;28;20039;-92
2023/07/09 04:00:25;;;;;;;7.03;6.32;;;;;;;18.40;100.00;100973.69;6142686;28;20421;-92
2023/07/09 04:03:26;;;;;;;9.82;6.60;;;;;;;18.40;100.00;100966.63;6149930;28;20505;-93
2023/07/09 04:06:28;;;;;;;6.97;6.28;;;;;;;18.44;100.00;100975.03;6151130;28;20512;-93
2023/07/09 04:09:30;;;;;;;8.55;6.75;;;;;;;18.46;100.00;100973.06;6147319;28;20433;-93
2023/07/09 04:12:32;;;;;;;7.57;6.80;;;;;;;18.47;100.00;100972.06;6130121;28;20079;-92
2023/07/09 04:15:35;;;;;;;7.40;6.15;;;;;;;18.49;100.00;100970.91;6153656;28;20045;-92
2023/07/09 04:18:36;;;;;;;7.65;6.28;;;;;;;18.55;100.00;100976.50;6148144;28;20053;-92
2023/07/09 04:21:39;;;;;;;9.85;6.80;;;;;;;18.59;100.00;100976.00;6153925;28;20046;-93
2023/07/09 04:24:40;;;;;;;14.65;6.97;;;;;;;18.64;100.00;100973.72;6154332;28;20062;-93
2023/07/09 04:27:43;;;;;;;8.98;6.60;;;;;;;18.68;100.00;100969.81;6133093;28;20420;-92
2023/07/09 04:30:51;;;;;;;10.10;6.10;;;;;;;18.83;100.00;100963.91;6136960;28;20542;-93
2023/07/09 04:33:53;;;;;;;7.60;6.80;;;;;;;19.26;100.00;100972.41;6127105;28;20777;-93
2023/07/09 04:36:55;;;;;;;10.50;6.35;;;;;;;19.39;100.00;100979.78;6139475;28;20039;-93
2023/07/09 04:39:56;;;;;;;8.48;5.88;;;;;;;19.44;100.00;100975.66;6143369;28;20050;-93
2023/07/09 04:42:58;;;;;;;8.85;6.50;;;;;;;19.49;100.00;100983.84;6140756;28;20639;-93
2023/07/09 04:46:00;;;;;;;7.97;6.22;;;;;;;19.52;100.00;100980.06;6141860;28;20043;-92
2023/07/09 04:49:03;;;;;;;7.43;6.25;;;;;;;19.56;100.00;100973.50;6140978;28;20046;-92
2023/07/09 04:52:05;;;;;;;9.55;6.78;;;;;;;19.57;100.00;100973.28;6141505;28;20129;-92
2023/07/09 04:55:08;;;;;;;9.20;6.85;;;;;;;19.63;100.00;100981.50;6124746;28;20517;-92
2023/07/09 04:58:11;;;;;;;10.45;7.57;;;;;;;19.65;100.00;100988.25;6140658;28;20088;-92
2023/07/09 05:01:13;;;;;;;9.82;6.78;;;;;;;19.73;100.00;100982.97;6151852;28;20058;-92
2023/07/09 05:04:16;;;;;;;10.80;7.05;;;;;;;19.78;100.00;100992.97;6152865;28;20170;-93
2023/07/09 05:07:21;;;;;;;10.95;7.30;;;;;;;19.80;100.00;100975.25;6155873;28;20043;-93
2023/07/09 05:10:23;;;;;;;11.20;7.53;;;;;;;19.79;100.00;100976.22;6146437;28;20596;-92
2023/07/09 05:13:25;;;;;;;9.35;6.70;;;;;;;19.82;100.00;100981.13;6139516;28;20175;-93
2023/07/09 05:16:30;;;;;;;8.82;6.13;;;;;;;19.86;100.00;100981.63;6153266;28;20513;-92
2023/07/09 05:19:32;;;;;;;8.60;6.47;;;;;;;19.92;100.00;100983.53;6145789;28;20819;-93
2023/07/09 05:22:34;;;;;;;12.27;7.25;;;;;;;20.00;100.00;100979.09;6147751;28;20041;-93
2023/07/09 05:25:36;;;;;;;9.38;6.82;;;;;;;20.04;100.00;100978.72;6140314;28;20050;-93
2023/07/09 05:28:38;;;;;;;7.47;6.05;;;;;;;20.09;100.00;100982.47;6140122;28;20118;-93
2023/07/09 05:31:41;;;;;;;9.27;6.55;;;;;;;20.13;100.00;100991.66;6140510;28;20051;-93
2023/07/09 05:34:43;;;;;;;9.63;6.70;;;;;;;20.20;100.00;100986.56;6136286;28;20512;-93
2023/07/09 05:37:45;;;;;;;8.88;6.78;;;;;;;20.23;100.00;100980.94;6126593;28;20186;-93
2023/07/09 05:40:48;;;;;;;8.50;7.07;;;;;;;20.30;100.00;100987.13;6139381;28;20461;-93
2023/07/09 05:43:52;;;;;;;9.77;6.50;;;;;;;20.40;100.00;100985.09;6140387;28;20047;-93
2023/07/09 05:46:54;;;;;;;10.73;6.70;;;;;;;20.46;100.00;100982.75;6141909;28;20130;-93
2023/07/09 05:49:55;;;;;;;10.90;7.13;;;;;;;20.50;100.00;100986.69;6140724;28;20070;-93
2023/07/09 05:52:57;;;;;;;10.15;6.47;;;;;;;20.59;100.00;100985.66;6141064;28;20488;-92
2023/07/09 05:55:59;;;;;;;11.23;6.70;;;;;;;20.64;100.00;100985.94;6152232;28;20042;-93
2023/07/09 05:59:01;;;;;;;8.10;6.70;;;;;;;20.07;100.00;100994.16;6160541;28;20071;-93
2023/07/09 06:02:03;;;;;;;6.90;6.13;;;;;;;20.12;100.00;100999.72;6141651;28;20057;-93
2023/07/09 06:05:09;;;;;;;8.07;6.10;;;;;;;20.19;100.00;101001.47;6140476;28;20486;-93
2023/07/09 06:08:12;;;;;;;9.15;6.57;;;;;;;20.23;100.00;100992.25;6154582;28;20042;-93
2023/07/09 06:11:14;;;;;;;12.90;6.43;;;;;;;20.28;100.00;100991.75;6158216;28;20046;-93
2023/07/09 06:14:16;;;;;;;9.60;6.40;;;;;;;20.32;100.00;100993.06;6139832;28;20051;-93
2023/07/09 06:17:18;;;;;;;10.38;6.22;;;;;;;20.37;100.00;100995.97;6138093;28;20062;-93
2023/07/09 06:20:20;;;;;;;10.25;5.90;;;;;;;20.47;100.00;100997.53;6148390;28;20066;-93
2023/07/09 06:23:23;;;;;;;8.73;6.20;;;;;;;20.57;100.00;101000.78;6144653;28;20480;-92
2023/07/09 06:26:25;;;;;;;7.00;5.55;;;;;;;20.67;100.00;100997.94;6121965;28;20497;-93
2023/07/09 06:29:27;;;;;;;10.45;6.20;;;;;;;20.77;100.00;100995.88;6139672;28;20040;-93
2023/07/09 06:32:29;;;;;;;8.65;6.15;;;;;;;20.84;100.00;100996.81;6147598;28;20061;-92
2023/07/09 06:35:30;;;;;;;8.35;5.82;;;;;;;20.93;100.00;101000.19;6138846;28;20106;-93
2023/07/09 06:38:33;;;;;;;6.43;5.80;;;;;;;21.00;100.00;100995.88;6138581;28;20058;-93
2023/07/09 06:41:41;;;;;;;9.05;6.63;;;;;;;21.10;100.00;100998.25;6143745;28;20048;-93
2023/07/09 06:45:04;;;;;;;9.50;5.95;;;;;;;21.21;100.00;101003.06;6145460;28;20047;-93
2023/07/09 06:48:06;;;;;;;6.57;5.90;;;;;;;21.38;100.00;101007.19;6122262;29;20071;-93
2023/07/09 06:51:07;;;;;;;6.15;5.53;;;;;;;21.38;100.00;101006.38;6145217;28;20547;-93
2023/07/09 06:54:11;;;;;;;6.25;5.28;;;;;;;21.48;100.00;101007.75;6133229;28;20043;-93
2023/07/09 06:57:13;;;;;;;7.13;6.32;;;;;;;21.56;100.00;101006.03;6128648;28;20048;-93
2023/07/09 07:00:15;;;;;;;8.30;5.65;;;;;;;21.64;100.00;101009.41;6142486;28;20041;-93
2023/07/09 07:03:18;;;;;;;8.73;6.38;;;;;;;21.74;100.00;101011.78;6152586;28;20464;-93
2023/07/09 07:06:20;;;;;;;7.63;5.50;;;;;;;21.80;100.00;101016.28;6152085;28;20043;-92
2023/07/09 07:09:21;;;;;;;7.22;5.65;;;;;;;21.89;100.00;101011.75;6149049;28;20054;-93
2023/07/09 07:12:26;;;;;;;7.70;5.53;;;;;;;22.02;100.00;101011.91;6149451;28;20032;-93
2023/07/09 07:15:27;;;;;;;6.25;5.30;;;;;;;22.12;100.00;101009.78;6143856;28;20057;-93
2023/07/09 07:18:29;;;;;;;9.30;5.88;;;;;;;22.25;100.00;101013.63;6153536;28;20115;-93
2023/07/09 07:21:31;;;;;;;6.63;5.60;;;;;;;22.36;100.00;101013.16;6143077;28;20051;-92
2023/07/09 07:24:33;;;;;;;6.47;5.88;;;;;;;22.44;100.00;101015.66;6144776;28;20043;-93
2023/07/09 07:27:37;;;;;;;8.30;6.05;;;;;;;22.54;100.00;101018.81;6143669;28;20174;-93
2023/07/09 07:30:40;;;;;;;7.38;6.15;;;;;;;22.66;100.00;101019.13;6132476;28;20089;-93
2023/07/09 07:33:41;;;;;;;9.20;5.88;;;;;;;22.77;100.00;101009.88;6145764;28;20112;-93
2023/07/09 07:36:43;;;;;;;8.05;5.20;;;;;;;22.88;100.00;101019.94;6143709;28;20043;-93
2023/07/09 07:39:45;;;;;;;8.38;6.18;;;;;;;22.94;100.00;101000.69;6131960;28;20035;-92
2023/07/09 07:42:47;;;;;;;11.57;5.88;;;;;;;22.99;100.00;101008.88;6146988;28;20049;-92
2023/07/09 07:45:48;;;;;;;6.35;5.32;;;;;;;23.07;100.00;101004.47;6143054;28;20043;-93
2023/07/09 07:48:50;;;;;;;5.75;5.07;;;;;;;23.15;100.00;101012.25;6141735;28;20043;-92
2023/07/09 07:51:53;;;;;;;6.45;5.15;;;;;;;23.24;100.00;101016.38;6137608;28;20490;-93
2023/07/09 07:54:57;;;;;;;7.93;5.85;;;;;;;23.31;100.00;101014.59;6137027;28;20046;-92
2023/07/09 07:58:02;;;;;;;5.88;5.25;;;;;;;23.39;100.00;101014.44;6141454;28;20444;-92
2023/07/09 08:01:04;;;;;;;5.70;5.10;;;;;;;23.50;100.00;101014.91;6140120;28;20054;-92
2023/07/09 08:04:06;;;;;;;8.63;5.15;;;;;;;23.58;100.00;101009.50;6138719;28;20505;-92
2023/07/09 08:07:09;;;;;;;6.05;5.13;;;;;;;23.65;100.00;101011.16;6140553;28;20035;-93
2023/07/09 08:10:12;;;;;;;6.28;5.00;;;;;;;23.78;100.00;101013.06;6135564;28;20184;-93
2023/07/09 08:13:13;;;;;;;7.68;5.22;;;;;;;23.89;100.00;101013.53;6132572;28;20078;-92
2023/07/09 08:16:16;;;;;;;6.20;5.03;;;;;;;23.98;100.00;101015.00;6133850;28;20121;-92
2023/07/09 08:19:20;;;;;;;6.68;5.00;;;;;;;24.57;100.00;101006.44;6129794;28;20454;-92
2023/07/09 08:22:22;;;;;;;7.80;5.18;;;;;;;24.72;100.00;101006.25;6140896;28;20043;-93
2023/07/09 08:25:24;;;;;;;6.97;5.10;;;;;;;24.82;100.00;101005.81;6136379;28;20043;-92
2023/07/09 08:28:26;;;;;;;5.28;4.78;;;;;;;24.90;100.00;101006.44;6136086;28;20047;-92
2023/07/09 08:31:28;;;;;;;6.35;5.20;;;;;;;25.00;100.00;101007.88;6132699;28;20122;-92
2023/07/09 08:34:30;;;;;;;6.88;4.72;;;;;;;25.07;100.00;101004.19;6132836;28;20449;-91
2023/07/09 08:37:32;;;;;;;7.93;5.40;;;;;;;25.16;100.00;100999.47;6135360;28;20523;-91
2023/07/09 08:40:39;;;;;;;7.38;5.78;;;;;;;25.34;100.00;100999.69;6141166;28;20046;-91
2023/07/09 08:44:06;;;;;;;7.13;5.07;;;;;;;25.47;100.00;101003.34;6139148;28;20117;-91
2023/07/09 08:47:22;;;;;;;6.82;5.00;;;;;;;25.62;100.00;101003.09;6137514;28;20096;-91
2023/07/09 08:50:32;;;;;;;6.00;5.13;;;;;;;25.72;100.00;101001.63;6138131;28;20045;-91
2023/07/09 08:54:03;;;;;;;6.40;5.45;;;;;;;25.86;100.00;100999.75;6140259;28;20429;-91
2023/07/09 08:57:21;;;;;;;7.18;5.57;;;;;;;25.94;100.00;100996.88;6025908;29;20053;-91
2023/07/09 09:00:30;;;;;;;8.13;5.22;;;;;;;26.04;100.00;101000.88;6024786;29;20083;-91
2023/07/09 09:03:37;;;;;;;5.72;4.97;;;;;;;26.17;100.00;101006.16;6040990;29;20060;-91
2023/07/09 09:06:44;;;;;;;8.88;5.90;;;;;;;26.31;100.00;100994.44;6046969;29;20550;-91
2023/07/09 09:09:46;;;;;;;7.13;5.72;;;;;;;26.43;100.00;100995.38;6038444;29;20055;-91
2023/07/09 09:12:56;;;;;;;7.45;6.22;;;;;;;26.58;100.00;100999.56;6044803;29;20055;-91
2023/07/09 09:16:05;;;;;;;7.63;5.60;;;;;;;26.68;100.00;100999.91;6031813;29;20056;-91
2023/07/09 09:19:20;;;;;;;8.73;5.55;;;;;;;26.82;100.00;100996.13;6021392;29;20045;-91
2023/07/09 09:22:28;;;;;;;7.35;5.68;;;;;;;26.93;100.00;100999.09;6047426;29;20136;-91
2023/07/09 09:25:32;;;;;;;8.65;6.03;;;;;;;26.62;100.00;100998.94;6043563;29;20796;-91
2023/07/09 09:28:40;;;;;;;6.20;5.38;;;;;;;26.61;100.00;100991.19;6040900;29;20678;-91
2023/07/09 09:31:48;;;;;;;6.03;5.43;;;;;;;26.69;100.00;100990.91;6051567;29;20041;-91
2023/07/09 09:34:50;;;;;;;8.73;5.82;;;;;;;26.80;100.00;100987.53;6128036;28;20086;-91
2023/07/09 09:37:54;;;;;;;7.80;6.00;;;;;;;27.00;100.00;100994.53;6139050;28;20043;-91
2023/07/09 09:41:02;;;;;;;6.72;5.97;;;;;;;27.15;100.00;101000.31;6146849;28;20800;-91
2023/07/09 09:44:06;;;;;;;6.70;5.85;;;;;;;27.28;100.00;101000.22;6136231;28;20050;-91
2023/07/09 09:47:10;;;;;;;6.57;5.55;;;;;;;27.41;100.00;100996.63;6138719;28;20120;-91
2023/07/09 09:50:22;;;;;;;6.63;5.63;;;;;;;27.52;100.00;101003.03;6138868;28;20524;-91
2023/07/09 09:53:25;;;;;;;7.60;5.95;;;;;;;27.74;100.00;100999.94;6138301;28;20139;-91
2023/07/09 09:56:36;;;;;;;9.23;5.82;;;;;;;27.95;100.00;100999.50;6138252;28;20062;-90
2023/07/09 09:59:38;;;;;;;7.72;5.90;;;;;;;28.11;100.00;101000.69;6132620;28;20340;-91
2023/07/09 10:02:45;;;;;;;10.93;5.65;;;;;;;28.27;100.00;101004.56;6140851;28;20432;-90
2023/07/09 10:05:54;;;;;;;6.60;5.38;;;;;;;28.37;100.00;101006.69;6131770;28;20058;-91
2023/07/09 10:09:04;;;;;;;8.10;6.30;;;;;;;28.44;100.00;101013.53;6138789;28;20713;-91
2023/07/09 10:12:18;;;;;;;6.13;5.53;;;;;;;28.54;100.00;101008.47;6148376;28;20066;-91
2023/07/09 10:15:51;;;;;;;9.80;5.43;;;;;;;28.60;100.00;101006.78;6138783;28;20042;-91
2023/07/09 10:19:03;;;;;;;6.15;5.55;;;;;;;28.58;100.00;101002.72;6141002;28;20044;-91
2023/07/09 10:22:21;;;;;;;6.30;5.65;;;;;;;28.65;100.00;101003.44;6136982;28;20039;-91
2023/07/09 10:25:37;;;;;;;6.93;5.80;;;;;;;28.68;100.00;101002.97;6132257;28;20035;-91
2023/07/09 10:29:07;;;;;;;6.28;5.40;;;;;;;28.73;100.00;101014.53;6141174;28;20047;-91
2023/07/09 10:32:27;;;;;;;6.50;5.90;;;;;;;28.71;100.00;101005.97;6145200;28;20496;-91
2023/07/09 10:35:56;;;;;;;9.15;6.00;;;;;;;28.77;100.00;101005.06;6140827;28;20047;-91
2023/07/09 10:39:31;;;;;;;6.47;5.80;;;;;;;28.91;100.00;101002.16;6139107;28;20035;-91
2023/07/09 10:42:48;;;;;;;7.78;5.60;;;;;;;28.98;100.00;100994.88;6132151;28;20047;-90
2023/07/09 10:46:02;;;;;;;6.25;5.65;;;;;;;29.11;100.00;100993.84;6128449;28;20058;-90
2023/07/09 10:49:11;;;;;;;8.45;5.80;;;;;;;29.20;100.00;100998.59;6138683;28;20409;-90
2023/07/09 10:52:25;;;;;;;6.82;5.95;;;;;;;29.33;100.00;100992.19;6133535;28;20066;-90
2023/07/09 10:55:59;;;;;;;5.93;5.38;;;;;;;29.46;100.00;100991.13;6127431;28;20474;-90
2023/07/09 10:59:20;;;;;;;7.55;5.43;;;;;;;29.56;100.00;100990.53;6145851;28;20054;-91
2023/07/09 11:02:34;;;;;;;9.05;6.07;;;;;;;29.63;100.00;100985.88;6144409;28;20043;-90
2023/07/09 11:05:37;;;;;;;6.13;5.25;;;;;;;29.76;100.00;100984.81;6138628;28;20404;-90
2023/07/09 11:08:41;;;;;;;7.78;5.82;;;;;;;29.81;100.00;100987.56;6152785;28;20047;-90
2023/07/09 11:11:52;;;;;;;7.50;5.32;;;;;;;29.98;100.00;100987.63;6137457;28;20450;-91
2023/07/09 11:15:06;;;;;;;6.55;5.63;;;;;;;30.08;100.00;100987.81;6131386;28;20078;-90
2023/07/09 11:18:16;;;;;;;6.47;5.88;;;;;;;30.22;100.00;100991.00;6140189;28;20035;-90
2023/07/09 11:21:18;;;;;;;6.38;5.57;;;;;;;30.37;100.00;100982.47;6139459;28;20125;-90
2023/07/09 11:24:36;;;;;;;6.40;5.65;;;;;;;30.53;100.00;100981.66;6133283;28;20035;-90
2023/07/09 11:27:52;;;;;;;5.93;5.35;;;;;;;30.72;100.00;100986.75;6143656;28;20207;-90
2023/07/09 11:30:54;;;;;;;8.32;5.28;;;;;;;30.85;100.00;100975.75;6141294;28;20039;-90
2023/07/09 11:34:18;;;;;;;7.75;6.03;;;;;;;30.96;100.00;100958.81;6134225;28;20054;-90
2023/07/09 11:37:25;;;;;;;6.35;5.55;;;;;;;31.03;100.00;100963.97;6137188;28;20042;-90
2023/07/09 11:40:27;;;;;;;6.95;5.50;;;;;;;31.02;100.00;100973.84;6135992;28;20624;-91
2023/07/09 11:43:46;;;;;;;7.47;5.75;;;;;;;31.01;100.00;100958.88;6135915;28;20058;-90
2023/07/09 11:47:27;;;;;;;5.93;5.40;;;;;;;31.10;100.00;100957.38;6137315;28;20047;-90
2023/07/09 11:50:32;;;;;;;6.80;5.20;;;;;;;31.35;100.00;100958.75;6061988;29;20500;-91
2023/07/09 11:53:53;;;;;;;5.90;5.28;;;;;;;31.54;100.00;100949.38;6058537;29;20049;-90
2023/07/09 11:56:56;;;;;;;6.63;5.30;;;;;;;31.73;100.00;100952.53;6067113;29;20172;-90
2023/07/09 12:00:01;;;;;;;6.22;5.53;;;;;;;31.88;100.00;100949.22;6067359;29;20045;-91
2023/07/09 12:03:26;;;;;;;6.05;5.47;;;;;;;32.09;100.00;100949.44;6067659;29;20060;-90
2023/07/09 12:06:31;;;;;;;6.60;5.60;;;;;;;32.20;100.00;100953.81;6065766;29;20679;-91
2023/07/09 12:09:49;;;;;;;6.47;5.38;;;;;;;32.37;100.00;100954.50;6064957;29;20241;-90
2023/07/09 12:12:56;;;;;;;6.55;5.07;;;;;;;32.53;100.00;100958.13;6066349;29;20045;-91
2023/07/09 12:15:57;;;;;;;6.65;5.30;;;;;;;32.69;100.00;100959.03;6065224;29;20063;-90
2023/07/09 12:19:00;;;;;;;6.95;5.38;;;;;;;32.81;100.00;100950.78;6050996;29;20546;-90
2023/07/09 12:22:09;;;;;;;7.70;5.82;;;;;;;32.93;100.00;100937.97;6067590;29;20040;-91
2023/07/09 12:25:22;;;;;;;6.78;5.60;;;;;;;33.08;100.00;100931.13;6061729;29;20049;-90
2023/07/09 12:28:28;;;;;;;7.57;6.22;;;;;;;33.15;100.00;100924.44;6146702;28;20056;-90
2023/07/09 12:31:30;;;;;;;6.03;5.00;;;;;;;33.33;100.00;100927.72;6138261;28;20510;-90
2023/07/09 12:34:32;;;;;;;6.15;5.43;;;;;;;33.47;100.00;100920.78;6149089;28;20533;-90
2023/07/09 12:37:34;;;;;;;6.53;5.55;;;;;;;33.58;100.00;100925.13;6141377;28;20039;-90
2023/07/09 12:40:36;;;;;;;6.63;5.88;;;;;;;33.66;92.46;100921.09;6134771;28;20089;-91
2023/07/09 12:43:38;;;;;;;6.53;5.80;;;;;;;33.76;99.61;100920.31;6142723;28;20082;-90
2023/07/09 12:46:40;;;;;;;7.30;5.53;;;;;;;33.84;90.49;100912.56;6140079;28;20627;-91
2023/07/09 12:49:51;;;;;;;6.95;5.70;;;;;;;33.93;100.00;100912.81;6160135;28;20043;-91
2023/07/09 12:52:55;;;;;;;7.95;6.50;;;;;;;34.09;100.00;100917.16;6142272;28;20049;-90
2023/07/09 12:56:01;;;;;;;10.88;5.80;;;;;;;34.35;95.13;100910.94;6131737;28;20483;-90
2023/07/09 12:59:24;;;;;;;6.00;5.50;;;;;;;34.41;97.74;100907.16;6134745;28;20047;-90
2023/07/09 13:02:28;;;;;;;8.52;6.10;;;;;;;34.52;79.05;100901.50;6140324;28;20387;-90
2023/07/09 13:05:30;;;;;;;6.55;5.40;;;;;;;34.62;90.42;100900.69;6140468;28;20552;-91
2023/07/09 13:08:41;;;;;;;7.50;5.68;;;;;;;34.70;100.00;100902.81;6138455;28;20051;-90
2023/07/09 13:11:44;;;;;;;7.53;5.45;;;;;;;34.80;93.33;100883.16;6137309;28;20520;-91
2023/07/09 13:14:56;;;;;;;7.82;5.35;;;;;;;34.98;73.81;100881.72;6137228;28;20048;-90
2023/07/09 13:18:04;;;;;;;6.18;5.55;;;;;;;35.07;81.13;100874.69;6140236;28;20050;-90
2023/07/09 13:21:15;;;;;;;6.05;5.45;;;;;;;35.20;77.02;100877.91;6136167;28;20050;-90
2023/07/09 13:24:27;;;;;;;5.97;5.38;;;;;;;35.31;78.03;100874.88;6139638;28;20813;-90
2023/07/09 13:27:29;;;;;;;5.75;4.75;;;;;;;35.46;84.74;100870.47;6138740;28;20047;-90
2023/07/09 13:30:31;;;;;;;6.72;5.53;;;;;;;35.56;82.53;100865.03;6145335;28;20039;-90
2023/07/09 13:33:34;;;;;;;6.10;4.57;;;;;;;35.69;73.59;100864.41;6147601;28;20039;-90
2023/07/09 13:36:37;;;;;;;6.88;5.72;;;;;;;35.85;73.88;100858.88;6138788;28;20457;-90
2023/07/09 13:39:40;;;;;;;5.70;5.07;;;;;;;35.99;67.68;100852.56;6140489;28;20047;-90
2023/07/09 13:42:43;;;;;;;6.22;5.50;;;;;;;36.08;76.41;100847.41;6150556;28;20043;-91
2023/07/09 13:45:48;;;;;;;7.18;5.57;;;;;;;36.15;68.06;100844.34;6134431;28;20126;-91
2023/07/09 13:48:50;;;;;;;6.32;4.78;;;;;;;36.23;66.99;100844.53;6145397;28;20124;-91
2023/07/09 13:51:55;;;;;;;6.25;5.32;;;;;;;36.27;65.50;100830.47;6133221;28;20538;-90
2023/07/09 13:54:58;;;;;;;5.75;4.55;;;;;;;36.30;67.91;100843.38;6148823;28;20272;-91
2023/07/09 13:57:59;;;;;;;6.93;4.68;;;;;;;36.38;60.87;100834.69;6134285;28;20917;-91
2023/07/09 14:01:11;;;;;;;5.10;4.57;;;;;;;36.38;72.38;100835.47;6130962;28;20082;-91
2023/07/09 14:04:16;;;;;;;5.97;5.38;;;;;;;36.35;68.55;100833.38;6138783;28;20557;-91
2023/07/09 14:07:29;;;;;;;8.13;5.78;;;;;;;36.48;70.27;100831.06;6134642;28;20529;-92
2023/07/09 14:10:31;;;;;;;5.88;5.05;;;;;;;36.58;65.91;100834.47;6118284;28;20035;-91
2023/07/09 14:13:33;;;;;;;5.75;5.10;;;;;;;36.57;64.29;100819.38;6139069;28;20097;-91